Time;durP1;ratioP1;P1;durP2;ratioP2;P2;SDS_P1;SDS_P2;PMS_P1;PMS_P2;Temp;Humidity;BMP_temperature;BMP_pressure;BME280_temperature;BME280_humidity;BME280_pressure;Samples;Min_cycle;Max_cycle;Signal;HPM_P1;HPM_P2
2023/01/03 03:58:17;;;;;;;2.57;2.37;;;;;;;4.64;100.00;101512.72;5034575;28;20606;-76
2023/01/03 04:00:45;;;;;;;2.27;2.07;;;;;;;4.71;100.00;101513.78;5031256;28;20212;-76
2023/01/03 04:03:12;;;;;;;2.57;2.23;;;;;;;4.80;100.00;101514.09;5030799;28;20953;-76
2023/01/03 04:05:51;;;;;;;2.87;2.10;;;;;;;4.85;100.00;101517.69;5035452;28;20206;-78
2023/01/03 04:08:17;;;;;;;2.63;2.20;;;;;;;4.87;100.00;101517.75;5034827;28;20179;-77
2023/01/03 04:10:42;;;;;;;2.33;2.13;;;;;;;4.86;100.00;101516.88;5033878;28;20253;-76
2023/01/03 04:13:08;;;;;;;2.50;2.30;;;;;;;4.85;100.00;101516.81;5034930;28;20184;-76
2023/01/03 04:15:33;;;;;;;2.50;2.30;;;;;;;4.84;100.00;101518.53;5033804;28;20223;-77
2023/01/03 04:18:01;;;;;;;2.77;2.57;;;;;;;4.80;100.00;101508.97;5036297;28;20295;-77
2023/01/03 04:20:27;;;;;;;2.40;2.30;;;;;;;4.75;100.00;101509.63;5026793;28;20256;-77
2023/01/03 04:22:52;;;;;;;2.40;2.13;;;;;;;4.69;100.00;101518.84;5031514;28;20189;-76
2023/01/03 04:25:18;;;;;;;2.60;2.40;;;;;;;4.68;100.00;101537.66;5028367;28;20191;-76
2023/01/03 04:27:43;;;;;;;2.10;2.00;;;;;;;4.73;100.00;101530.09;5033951;28;20260;-78
2023/01/03 04:30:10;;;;;;;2.43;2.23;;;;;;;4.81;100.00;101538.06;5029754;28;20752;-76
2023/01/03 04:32:35;;;;;;;2.73;2.40;;;;;;;4.92;100.00;101538.41;5032330;28;20244;-76
2023/01/03 04:35:01;;;;;;;2.70;2.50;;;;;;;5.02;100.00;101537.94;5034164;28;20192;-76
2023/01/03 04:37:26;;;;;;;2.30;2.10;;;;;;;5.11;100.00;101529.69;5035762;28;20253;-76
2023/01/03 04:39:52;;;;;;;2.07;1.90;;;;;;;5.20;100.00;101524.84;5026413;28;20189;-77
2023/01/03 04:45:01;;;;;;;2.57;2.37;;;;;;;5.31;100.00;101531.19;5065342;28;20203;-77
2023/01/03 04:47:26;;;;;;;2.20;2.00;;;;;;;5.31;100.00;101527.75;5051920;28;20201;-76
2023/01/03 04:49:51;;;;;;;2.60;2.40;;;;;;;5.27;100.00;101524.22;5028128;28;20550;-76
2023/01/03 04:52:17;;;;;;;2.47;2.27;;;;;;;5.23;100.00;101529.19;5031226;28;20815;-77
2023/01/03 04:54:42;;;;;;;2.50;2.30;;;;;;;5.16;100.00;101523.88;5033092;28;20236;-75
2023/01/03 04:57:08;;;;;;;2.80;2.50;;;;;;;5.12;100.00;101521.16;5033283;28;20213;-76
2023/01/03 04:59:35;;;;;;;2.33;2.13;;;;;;;5.05;100.00;101530.34;5032558;28;20200;-78
2023/01/03 05:02:01;;;;;;;2.63;2.20;;;;;;;5.02;100.00;101540.50;5034187;28;20224;-76
2023/01/03 05:04:27;;;;;;;3.87;2.53;;;;;;;4.99;100.00;101537.81;5026053;28;20193;-77
2023/01/03 05:06:56;;;;;;;2.57;2.37;;;;;;;4.95;100.00;101535.97;5031546;28;20246;-77
2023/01/03 05:09:22;;;;;;;3.80;2.30;;;;;;;4.94;100.00;101526.53;5006734;28;20234;-76
2023/01/03 05:11:47;;;;;;;2.50;2.30;;;;;;;4.91;100.00;101532.44;4992493;28;20245;-76
2023/01/03 05:14:13;;;;;;;2.67;2.47;;;;;;;4.87;100.00;101523.75;4993467;28;20186;-76
2023/01/03 05:16:38;;;;;;;2.27;2.13;;;;;;;4.82;100.00;101532.13;4988874;28;20210;-78
2023/01/03 05:19:03;;;;;;;2.50;2.30;;;;;;;4.76;100.00;101537.91;4991522;28;20620;-77
2023/01/03 05:26:59;;;;;;;2.90;2.60;;;;;;;4.65;100.00;101547.78;5010987;28;20196;-76
2023/01/03 05:29:27;;;;;;;2.50;2.30;;;;;;;4.64;100.00;101548.59;5006425;28;20188;-76
2023/01/03 05:31:52;;;;;;;2.50;2.30;;;;;;;4.62;100.00;101551.91;5008098;28;20220;-76
2023/01/03 05:34:18;;;;;;;2.90;2.70;;;;;;;4.61;100.00;101548.50;5010153;28;20196;-77
2023/01/03 05:36:43;;;;;;;2.50;2.30;;;;;;;4.64;100.00;101553.72;5006619;28;20218;-77
2023/01/03 05:39:09;;;;;;;2.60;2.40;;;;;;;4.64;100.00;101552.84;5009015;28;20195;-77
2023/01/03 05:44:18;;;;;;;2.80;2.60;;;;;;;4.61;100.00;101557.88;5009810;28;20786;-77
2023/01/03 05:46:43;;;;;;;2.73;2.53;;;;;;;4.57;100.00;101559.44;5024208;28;20281;-77
2023/01/03 05:49:09;;;;;;;3.57;2.80;;;;;;;4.54;100.00;101562.78;5008998;28;20191;-77
2023/01/03 05:51:34;;;;;;;2.63;2.43;;;;;;;4.52;100.00;101553.28;5008020;28;20275;-77
2023/01/03 05:53:59;;;;;;;2.83;2.63;;;;;;;4.50;100.00;101563.47;5014799;28;20244;-78
2023/01/03 05:56:25;;;;;;;2.83;2.43;;;;;;;4.46;100.00;101561.63;5005712;28;20979;-76
2023/01/03 05:58:50;;;;;;;2.60;2.40;;;;;;;4.45;100.00;101566.69;5010399;28;20199;-77
2023/01/03 06:01:16;;;;;;;3.00;2.80;;;;;;;4.42;100.00;101564.91;5002439;28;20250;-78
2023/01/03 06:03:45;;;;;;;2.73;2.53;;;;;;;4.40;100.00;101569.09;5009975;28;20270;-77
2023/01/03 06:06:13;;;;;;;3.10;2.80;;;;;;;4.38;100.00;101570.72;5006127;28;20185;-76
2023/01/03 06:08:39;;;;;;;3.37;2.93;;;;;;;4.37;100.00;101575.00;5005846;28;20188;-76
2023/01/03 06:11:09;;;;;;;2.83;2.63;;;;;;;4.38;100.00;101574.19;5007941;28;20215;-77
2023/01/03 06:13:34;;;;;;;3.00;2.70;;;;;;;4.39;100.00;101569.91;5006276;28;20217;-76
2023/01/03 06:18:49;;;;;;;2.57;2.37;;;;;;;4.38;100.00;101575.84;5008195;28;20289;-76
2023/01/03 06:21:15;;;;;;;2.63;2.43;;;;;;;4.33;100.00;101562.88;5005500;28;20219;-76
2023/01/03 06:23:40;;;;;;;2.50;2.30;;;;;;;4.33;100.00;101574.78;5006932;28;20189;-77
2023/01/03 06:26:05;;;;;;;2.60;2.40;;;;;;;4.29;100.00;101568.69;5003183;28;20696;-77
2023/01/03 06:28:31;;;;;;;2.53;2.33;;;;;;;4.29;100.00;101575.50;5010301;28;20201;-76
2023/01/03 06:30:56;;;;;;;2.03;1.83;;;;;;;4.26;100.00;101579.72;5008416;28;20211;-76
2023/01/03 06:33:21;;;;;;;2.20;1.93;;;;;;;4.23;100.00;101582.16;5005701;28;20194;-77
2023/01/03 06:35:47;;;;;;;2.83;2.40;;;;;;;4.21;100.00;101576.09;5006870;28;20195;-76
2023/01/03 06:38:12;;;;;;;2.10;1.90;;;;;;;4.20;100.00;101579.47;5006586;28;20240;-76
2023/01/03 06:40:37;;;;;;;2.23;2.03;;;;;;;4.20;100.00;101579.47;5003008;28;20212;-76
2023/01/03 06:43:03;;;;;;;2.53;1.97;;;;;;;4.21;100.00;101573.53;5006430;28;20193;-77
2023/01/03 06:53:41;;;;;;;2.63;2.43;;;;;;;4.24;100.00;101583.00;5007990;28;20212;-76
2023/01/03 06:56:08;;;;;;;2.30;2.10;;;;;;;4.23;100.00;101584.72;5032528;28;20188;-76
2023/01/03 06:58:34;;;;;;;2.57;2.20;;;;;;;4.21;100.00;101575.22;5028862;28;20192;-77
2023/01/03 07:01:04;;;;;;;2.60;2.40;;;;;;;4.18;100.00;101575.97;5009592;28;20339;-76
2023/01/03 07:03:31;;;;;;;3.40;2.47;;;;;;;4.16;100.00;101579.28;5005655;28;20192;-76
2023/01/03 07:05:56;;;;;;;2.93;2.30;;;;;;;4.11;100.00;101579.97;5000112;28;20190;-76
2023/01/03 07:08:21;;;;;;;2.50;2.30;;;;;;;4.09;100.00;101578.19;5000287;28;20570;-76
2023/01/03 07:10:47;;;;;;;2.30;2.20;;;;;;;4.07;100.00;101582.38;5001071;28;20786;-76
2023/01/03 07:15:57;;;;;;;2.80;2.50;;;;;;;3.98;100.00;101585.44;5004193;28;20258;-75
2023/01/03 07:18:22;;;;;;;2.47;2.20;;;;;;;3.94;100.00;101589.59;5008060;28;20196;-76
2023/01/03 07:20:47;;;;;;;2.63;2.03;;;;;;;3.91;100.00;101596.28;5007524;28;20209;-75
2023/01/03 07:23:13;;;;;;;2.83;2.30;;;;;;;3.87;100.00;101595.25;5012835;28;20212;-75
2023/01/03 07:25:40;;;;;;;2.37;2.00;;;;;;;3.83;100.00;101595.09;5010028;28;20256;-76
2023/01/03 07:28:07;;;;;;;2.10;1.90;;;;;;;3.79;100.00;101592.41;5004981;28;20188;-75
2023/01/03 07:30:37;;;;;;;2.03;1.83;;;;;;;3.78;100.00;101602.59;5001370;28;20205;-75
2023/01/03 07:33:02;;;;;;;2.17;2.07;;;;;;;3.78;100.00;101600.88;5019866;28;20679;-76
2023/01/03 07:35:31;;;;;;;2.07;1.90;;;;;;;3.79;100.00;101596.66;5006267;28;20195;-76
2023/01/03 07:37:56;;;;;;;2.50;2.30;;;;;;;3.82;100.00;101599.34;5004185;28;20213;-79
2023/01/03 07:40:21;;;;;;;2.30;2.10;;;;;;;3.84;100.00;101610.53;5000536;28;20600;-74
2023/01/03 07:45:31;;;;;;;2.50;2.30;;;;;;;3.85;100.00;101609.72;5009044;28;20195;-75
2023/01/03 07:47:56;;;;;;;2.73;2.53;;;;;;;3.83;100.00;101616.47;4997613;28;20629;-74
2023/01/03 07:50:21;;;;;;;3.03;2.83;;;;;;;3.80;100.00;101622.31;5003796;28;20641;-75
2023/01/03 07:52:46;;;;;;;4.17;3.60;;;;;;;3.82;100.00;101617.28;5005442;28;20224;-76
2023/01/03 07:55:12;;;;;;;3.77;3.47;;;;;;;3.84;100.00;101620.78;5004488;28;20219;-74
2023/01/03 07:57:37;;;;;;;3.90;3.60;;;;;;;3.89;100.00;101633.75;4998946;28;20267;-78
2023/01/03 08:00:03;;;;;;;3.87;3.43;;;;;;;3.91;100.00;101627.88;5004132;28;20234;-75
2023/01/03 08:02:28;;;;;;;3.03;2.83;;;;;;;3.96;100.00;101636.63;5002721;28;20189;-75
2023/01/03 08:04:53;;;;;;;3.07;2.83;;;;;;;3.99;100.00;101632.44;5008450;28;20185;-76
2023/01/03 08:07:19;;;;;;;2.50;2.30;;;;;;;3.97;100.00;101628.13;5006839;28;20185;-75
2023/01/03 08:15:12;;;;;;;3.50;3.00;;;;;;;4.02;100.00;101643.69;4990933;28;20623;-74
2023/01/03 08:17:37;;;;;;;2.70;2.50;;;;;;;4.04;100.00;101646.28;4991932;28;20208;-75
2023/01/03 08:20:03;;;;;;;2.93;2.63;;;;;;;4.07;100.00;101646.41;4994530;28;20702;-74
2023/01/03 08:22:28;;;;;;;2.80;2.60;;;;;;;4.10;100.00;101641.41;4997706;28;20742;-75
2023/01/03 08:24:54;;;;;;;2.97;2.77;;;;;;;4.13;100.00;101651.78;4998735;28;20306;-76
2023/01/03 08:27:19;;;;;;;3.20;2.90;;;;;;;4.17;100.00;101651.06;4996273;28;20195;-74
2023/01/03 08:29:47;;;;;;;2.83;2.63;;;;;;;4.21;100.00;101655.53;4999472;28;20315;-75
2023/01/03 08:32:13;;;;;;;3.40;2.30;;;;;;;4.24;100.00;101659.88;4996430;28;20204;-76
2023/01/03 08:34:43;;;;;;;2.47;2.13;;;;;;;4.21;100.00;101665.78;4998706;28;20239;-75
2023/01/03 08:37:10;;;;;;;2.23;2.13;;;;;;;4.25;100.00;101669.31;4988779;28;20215;-77
2023/01/03 08:39:50;;;;;;;2.57;2.37;;;;;;;4.30;100.00;101672.94;4998141;28;20275;-75
2023/01/03 08:42:19;;;;;;;39.73;35.93;;;;;;;4.33;100.00;101674.75;4992020;28;20981;-76
2023/01/03 08:44:46;;;;;;;22.27;20.27;;;;;;;4.35;100.00;101675.69;4991097;28;20264;-75
2023/01/03 08:47:13;;;;;;;14.13;12.83;;;;;;;4.37;100.00;101677.50;5011730;28;20281;-76
2023/01/03 08:49:39;;;;;;;9.23;8.43;;;;;;;4.41;100.00;101681.06;5003473;28;20181;-76
2023/01/03 08:52:04;;;;;;;6.57;5.97;;;;;;;4.46;100.00;101686.34;5003359;28;20183;-76
2023/01/03 08:54:30;;;;;;;5.10;4.70;;;;;;;4.48;100.00;101666.78;4997716;28;20226;-77
2023/01/03 08:56:55;;;;;;;4.83;4.37;;;;;;;4.53;100.00;101670.41;4993539;28;20214;-76
2023/01/03 08:59:20;;;;;;;5.10;4.70;;;;;;;4.59;100.00;101673.19;4998029;28;20185;-76
2023/01/03 09:01:46;;;;;;;4.80;4.47;;;;;;;4.66;100.00;101684.56;4997744;28;20216;-76
2023/01/03 09:04:11;;;;;;;3.73;3.53;;;;;;;4.68;100.00;101678.69;4999467;28;20193;-76
2023/01/03 09:06:37;;;;;;;4.40;4.00;;;;;;;4.71;100.00;101683.91;5003543;28;20275;-76
2023/01/03 09:09:07;;;;;;;4.43;4.13;;;;;;;4.74;100.00;101690.88;5006329;28;20197;-78
2023/01/03 09:11:32;;;;;;;4.70;4.30;;;;;;;4.75;100.00;101684.91;5031361;28;20206;-77
2023/01/03 09:13:58;;;;;;;6.40;5.80;;;;;;;4.78;100.00;101691.84;5031770;28;20214;-76
2023/01/03 09:16:23;;;;;;;7.50;6.70;;;;;;;4.78;100.00;101690.13;4999038;28;20213;-76
2023/01/03 09:18:49;;;;;;;8.77;7.13;;;;;;;4.79;100.00;101699.59;4993521;28;20281;-76
2023/01/03 09:21:14;;;;;;;8.37;7.47;;;;;;;4.80;100.00;101697.91;4996621;28;20243;-76
2023/01/03 09:23:39;;;;;;;7.90;7.10;;;;;;;4.81;100.00;101694.53;5003486;28;20269;-78
2023/01/03 09:26:05;;;;;;;8.57;7.67;;;;;;;4.82;100.00;101701.41;4996502;28;20585;-77
2023/01/03 09:28:31;;;;;;;8.47;7.67;;;;;;;4.82;100.00;101706.53;5002884;28;20728;-76
2023/01/03 09:30:57;;;;;;;8.57;7.67;;;;;;;4.80;100.00;101698.78;4994880;28;20216;-77
2023/01/03 09:33:22;;;;;;;8.63;7.83;;;;;;;4.81;100.00;101703.09;4998290;28;20558;-76
2023/01/03 09:35:48;;;;;;;8.50;6.83;;;;;;;4.84;100.00;101704.91;4995665;28;20202;-76
2023/01/03 09:38:13;;;;;;;6.20;5.60;;;;;;;4.88;100.00;101706.75;4999306;28;20227;-77
2023/01/03 09:40:42;;;;;;;5.83;5.33;;;;;;;4.93;100.00;101715.50;4991182;28;20210;-76
2023/01/03 09:43:16;;;;;;;5.60;5.00;;;;;;;5.00;100.00;101714.91;4992751;28;20273;-77
2023/01/03 09:46:14;;;;;;;5.20;4.60;;;;;;;5.08;100.00;101712.63;4995000;28;20206;-77
2023/01/03 09:48:40;;;;;;;4.90;4.40;;;;;;;5.15;100.00;101718.84;4990012;28;20210;-76
2023/01/03 10:03:42;;;;;;;4.97;4.20;;;;;;;5.24;100.00;101718.31;4992539;28;20285;-76
2023/01/03 10:05:22;;;;;;;4.63;3.70;;;;;;;5.71;100.00;101711.41;5004417;28;20258;-76
2023/01/03 10:07:47;;;;;;;3.97;3.60;;;;;;;5.80;100.00;101713.41;5003554;28;20663;-76
2023/01/03 10:10:28;;;;;;;3.73;3.43;;;;;;;5.86;100.00;101707.59;4996233;28;20233;-76
2023/01/03 10:13:00;;;;;;;4.50;3.70;;;;;;;5.92;100.00;101694.97;5008026;28;20200;-76
2023/01/03 10:15:44;;;;;;;3.93;3.60;;;;;;;5.97;100.00;101707.97;4996528;28;20194;-77
2023/01/03 10:18:19;;;;;;;3.90;3.60;;;;;;;6.01;100.00;101702.13;5003030;28;21264;-76
2023/01/03 10:20:52;;;;;;;3.57;3.23;;;;;;;6.05;100.00;101693.72;4999206;28;20211;-77
2023/01/03 10:23:18;;;;;;;3.90;3.60;;;;;;;6.12;100.00;101699.91;4996067;28;20195;-76
2023/01/03 10:25:46;;;;;;;3.67;3.37;;;;;;;6.19;100.00;101695.03;4995533;28;20197;-76
2023/01/03 10:28:22;;;;;;;3.20;3.00;;;;;;;6.30;100.00;101702.19;5001277;28;20191;-77
2023/01/03 10:30:56;;;;;;;4.13;3.83;;;;;;;6.39;100.00;101702.47;4997464;28;20219;-77
2023/01/03 10:33:39;;;;;;;4.10;3.80;;;;;;;6.48;100.00;101709.59;4998623;28;20655;-76
2023/01/03 10:36:07;;;;;;;3.90;3.60;;;;;;;6.58;100.00;101705.63;4996183;28;22265;-78
2023/01/03 10:38:33;;;;;;;3.40;3.10;;;;;;;6.65;100.00;101703.28;4993837;28;20196;-76
2023/01/03 10:41:00;;;;;;;4.47;3.00;;;;;;;6.73;100.00;101700.94;4995114;28;20218;-76
2023/01/03 10:43:44;;;;;;;3.20;2.97;;;;;;;6.82;100.00;101695.19;4998662;28;20195;-77
2023/01/03 10:46:17;;;;;;;3.80;3.30;;;;;;;6.92;100.00;101697.19;4991003;28;20218;-76
2023/01/03 10:48:48;;;;;;;4.30;3.90;;;;;;;7.00;100.00;101688.00;4992090;28;20227;-77
2023/01/03 10:51:23;;;;;;;4.20;3.90;;;;;;;7.10;100.00;101683.09;4995310;28;20595;-76
2023/01/03 10:53:50;;;;;;;5.40;4.93;;;;;;;7.20;100.00;101689.38;4998738;28;20689;-78
2023/01/03 10:56:17;;;;;;;5.00;4.60;;;;;;;7.31;100.00;101685.38;4995319;28;20211;-77
2023/01/03 10:58:42;;;;;;;6.33;5.83;;;;;;;7.41;100.00;101683.94;4993792;28;20188;-77
2023/01/03 11:01:18;;;;;;;6.10;5.50;;;;;;;7.51;100.00;101685.91;4987383;28;20739;-77
2023/01/03 11:03:43;;;;;;;4.93;4.50;;;;;;;7.62;100.00;101689.66;4985709;28;20594;-76
2023/01/03 11:06:13;;;;;;;3.70;3.40;;;;;;;7.73;100.00;101684.75;4983056;28;20201;-76
2023/01/03 11:08:45;;;;;;;3.30;3.00;;;;;;;7.81;100.00;101678.94;4987208;28;20742;-76
2023/01/03 11:11:43;;;;;;;4.60;4.20;;;;;;;7.90;100.00;101686.88;4998867;28;20209;-77
2023/01/03 11:14:24;;;;;;;3.07;2.87;;;;;;;7.99;100.00;101681.09;4994209;28;20342;-76
2023/01/03 11:17:11;;;;;;;3.60;3.30;;;;;;;8.05;100.00;101676.09;4994234;28;20223;-77
2023/01/03 11:19:36;;;;;;;3.03;2.80;;;;;;;8.11;100.00;101675.34;4994114;28;20189;-78
2023/01/03 11:22:23;;;;;;;3.60;3.30;;;;;;;8.16;100.00;101666.88;4985917;28;20532;-78
2023/01/03 11:24:58;;;;;;;2.83;2.63;;;;;;;8.23;100.00;101666.22;4998572;28;20822;-78
2023/01/03 11:27:57;;;;;;;4.03;3.63;;;;;;;8.31;100.00;101666.38;5028362;28;20234;-77
2023/01/03 11:30:28;;;;;;;7.43;6.03;;;;;;;8.36;100.00;101662.19;5011378;28;20254;-77
2023/01/03 11:33:30;;;;;;;5.53;4.50;;;;;;;8.45;100.00;101660.66;4992648;28;20303;-77
2023/01/03 11:36:10;;;;;;;4.43;4.03;;;;;;;8.52;100.00;101659.97;4991478;28;20615;-77
2023/01/03 11:38:49;;;;;;;5.20;4.70;;;;;;;8.58;100.00;101664.38;4997291;28;20183;-76
2023/01/03 11:41:31;;;;;;;8.83;7.93;;;;;;;8.62;100.00;101664.47;4987335;28;20680;-76
2023/01/03 11:44:11;;;;;;;7.07;6.33;;;;;;;8.68;100.00;101661.19;4994366;28;20271;-76
2023/01/03 11:47:10;;;;;;;5.90;5.10;;;;;;;8.73;100.00;101659.56;4989662;28;20270;-78
2023/01/03 11:50:09;;;;;;;4.13;3.70;;;;;;;8.79;100.00;101653.63;5004196;28;20220;-77
2023/01/03 11:52:43;;;;;;;2.70;2.50;;;;;;;8.83;100.00;101655.44;4990965;28;20227;-77
2023/01/03 11:55:30;;;;;;;2.60;2.40;;;;;;;8.89;100.00;101657.28;4987835;28;20321;-77
2023/01/03 11:58:10;;;;;;;3.97;2.87;;;;;;;8.96;100.00;101652.28;4994701;28;20258;-76
2023/01/03 12:00:42;;;;;;;1.60;1.50;;;;;;;9.05;100.00;101648.16;4987542;28;20288;-76
2023/01/03 12:03:32;;;;;;;3.77;2.33;;;;;;;9.10;100.00;101649.06;4987165;28;20542;-75
2023/01/03 12:06:48;;;;;;;3.67;1.80;;;;;;;9.16;100.00;101644.03;4992806;28;20180;-77
2023/01/03 12:09:23;;;;;;;3.03;1.90;;;;;;;9.21;100.00;101649.28;4992372;28;20205;-75
2023/01/03 12:12:10;;;;;;;2.07;1.73;;;;;;;9.24;100.00;101644.19;4988729;28;20224;-76
2023/01/03 12:14:55;;;;;;;2.30;2.10;;;;;;;9.26;100.00;101637.34;4990180;28;20188;-75
2023/01/03 12:17:36;;;;;;;2.40;2.20;;;;;;;9.28;100.00;101643.41;4990278;28;20212;-75
2023/01/03 12:20:14;;;;;;;2.00;1.80;;;;;;;9.32;100.00;101646.91;4996413;28;20776;-76
2023/01/03 12:22:48;;;;;;;2.00;1.90;;;;;;;9.37;100.00;101647.88;4990813;28;20274;-77
2023/01/03 12:25:36;;;;;;;2.97;2.03;;;;;;;9.40;100.00;101641.03;4993016;28;21084;-76
2023/01/03 12:28:08;;;;;;;3.53;3.23;;;;;;;9.41;100.00;101635.03;4988702;28;20199;-75
2023/01/03 12:30:37;;;;;;;1.90;1.70;;;;;;;9.47;100.00;101634.25;4991606;28;20208;-77
2023/01/03 12:33:15;;;;;;;1.53;1.30;;;;;;;9.51;100.00;101630.91;4999399;28;21038;-76
2023/01/03 12:35:50;;;;;;;1.47;1.37;;;;;;;9.56;100.00;101626.66;4996137;28;20938;-78
2023/01/03 12:38:20;;;;;;;2.27;1.37;;;;;;;9.59;100.00;101624.13;4992100;28;20212;-77
2023/01/03 12:40:51;;;;;;;1.23;1.13;;;;;;;9.63;100.00;101616.44;4994685;28;20707;-77
2023/01/03 12:43:32;;;;;;;2.67;1.50;;;;;;;9.70;100.00;101619.13;4994330;28;20246;-76
2023/01/03 12:46:32;;;;;;;1.33;1.23;;;;;;;9.74;100.00;101620.94;4995893;28;20186;-77
2023/01/03 12:49:18;;;;;;;1.50;1.20;;;;;;;9.76;100.00;101620.94;4997261;28;20200;-78
2023/01/03 12:51:44;;;;;;;1.30;1.17;;;;;;;9.79;100.00;101620.13;4989369;28;20307;-77
2023/01/03 12:55:00;;;;;;;1.53;1.23;;;;;;;9.81;100.00;101621.00;4994699;28;20193;-77
2023/01/03 12:57:50;;;;;;;1.30;1.20;;;;;;;9.83;100.00;101609.84;4988893;28;20246;-76
2023/01/03 13:00:32;;;;;;;1.47;1.20;;;;;;;9.84;100.00;101614.16;4999116;28;20211;-77
2023/01/03 13:03:05;;;;;;;1.47;1.37;;;;;;;9.85;100.00;101602.13;4992847;28;20193;-78
2023/01/03 13:05:34;;;;;;;1.33;1.23;;;;;;;9.84;100.00;101606.41;4990977;28;20267;-78
2023/01/03 13:08:21;;;;;;;1.60;1.33;;;;;;;9.87;100.00;101609.06;4989716;28;20658;-78
2023/01/03 13:10:50;;;;;;;1.70;1.60;;;;;;;9.87;100.00;101601.28;4991649;28;20216;-77
2023/01/03 13:13:18;;;;;;;1.80;1.50;;;;;;;9.89;100.00;101603.91;4993830;28;20193;-78
2023/01/03 13:15:45;;;;;;;4.57;4.17;;;;;;;9.90;100.00;101603.94;5006467;28;20219;-77
2023/01/03 13:18:29;;;;;;;5.00;4.60;;;;;;;9.89;100.00;101603.91;4993134;28;20214;-77
2023/01/03 13:20:55;;;;;;;4.20;3.90;;;;;;;9.85;100.00;101602.97;4994339;28;20225;-77
2023/01/03 13:23:28;;;;;;;3.80;3.50;;;;;;;9.83;100.00;101599.50;4990873;28;20291;-76
2023/01/03 13:26:05;;;;;;;3.07;2.67;;;;;;;9.82;100.00;101596.91;4992302;28;20192;-78
2023/01/03 13:28:35;;;;;;;2.50;2.27;;;;;;;9.82;100.00;101591.72;5002047;28;20274;-76
2023/01/03 13:31:18;;;;;;;2.97;2.70;;;;;;;9.83;100.00;101585.72;4992432;28;20247;-77
2023/01/03 13:33:52;;;;;;;7.13;6.50;;;;;;;9.80;100.00;101586.56;4988895;28;20256;-77
2023/01/03 13:36:18;;;;;;;10.00;9.20;;;;;;;9.80;100.00;101583.06;4996260;28;20578;-78
2023/01/03 13:38:44;;;;;;;6.23;5.73;;;;;;;9.80;100.00;101593.41;4998368;28;20182;-77
2023/01/03 13:41:33;;;;;;;5.20;4.83;;;;;;;9.81;100.00;101590.00;5021565;28;20198;-79
2023/01/03 13:44:17;;;;;;;5.20;4.70;;;;;;;9.75;100.00;101589.06;5028414;28;20190;-76
2023/01/03 13:46:43;;;;;;;3.30;3.10;;;;;;;9.64;100.00;101590.59;5002638;28;20266;-77
2023/01/03 13:49:18;;;;;;;2.50;2.30;;;;;;;9.54;100.00;101592.16;5003451;28;20663;-77
2023/01/03 13:51:51;;;;;;;2.10;1.90;;;;;;;9.49;100.00;101588.66;4995696;28;20273;-76
2023/01/03 13:54:16;;;;;;;1.70;1.33;;;;;;;9.50;100.00;101589.50;4998219;28;21095;-76
2023/01/03 13:56:41;;;;;;;2.83;1.97;;;;;;;9.49;100.00;101591.22;5000322;28;20217;-76
2023/01/03 13:59:25;;;;;;;2.20;2.00;;;;;;;9.50;100.00;101586.91;4999561;28;22015;-76
2023/01/03 14:02:08;;;;;;;3.07;2.87;;;;;;;9.50;100.00;101592.97;4993702;28;20201;-75
2023/01/03 14:04:55;;;;;;;2.17;1.90;;;;;;;9.49;100.00;101585.19;4995981;28;20320;-76
2023/01/03 14:07:20;;;;;;;1.77;1.47;;;;;;;9.49;100.00;101590.34;4994994;28;20188;-76
2023/01/03 14:09:57;;;;;;;1.60;1.30;;;;;;;9.45;100.00;101586.84;5000404;28;20197;-77
2023/01/03 14:12:52;;;;;;;1.97;1.60;;;;;;;9.44;100.00;101590.28;4995471;28;20233;-75
2023/01/03 14:15:20;;;;;;;1.93;1.43;;;;;;;9.40;100.00;101589.38;5001153;28;20196;-76
2023/01/03 14:17:48;;;;;;;1.50;1.07;;;;;;;9.37;100.00;101583.28;4998969;28;20672;-76
2023/01/03 14:20:20;;;;;;;1.73;1.47;;;;;;;9.34;100.00;101586.66;4997579;28;20220;-76
2023/01/03 14:22:49;;;;;;;2.57;1.33;;;;;;;9.31;100.00;101596.94;4991908;28;20187;-76
2023/01/03 14:25:34;;;;;;;1.33;1.23;;;;;;;9.26;100.00;101590.84;4992941;28;20283;-76
2023/01/03 14:28:03;;;;;;;1.63;1.50;;;;;;;9.21;100.00;101593.34;4987229;28;20199;-77
2023/01/03 14:30:33;;;;;;;2.03;1.70;;;;;;;9.15;100.00;101586.34;4992950;28;20262;-75
2023/01/03 14:32:59;;;;;;;1.97;1.80;;;;;;;9.13;100.00;101585.47;4992672;28;20542;-77
2023/01/03 14:35:31;;;;;;;2.00;1.80;;;;;;;9.09;100.00;101588.81;4990402;28;20206;-77
2023/01/03 14:37:56;;;;;;;1.70;1.60;;;;;;;9.04;100.00;101593.03;4989705;28;20206;-77
2023/01/03 14:40:22;;;;;;;2.10;2.00;;;;;;;8.98;100.00;101596.38;4989862;28;21057;-76
2023/01/03 14:42:47;;;;;;;2.00;1.90;;;;;;;8.94;100.00;101596.28;4989942;28;20231;-76
2023/01/03 14:45:17;;;;;;;3.23;2.30;;;;;;;8.91;100.00;101606.56;4991495;28;20220;-76
2023/01/03 14:47:43;;;;;;;2.17;2.03;;;;;;;8.86;100.00;101601.31;4992264;28;20243;-76
2023/01/03 14:50:21;;;;;;;2.40;2.20;;;;;;;8.81;100.00;101603.81;4986454;28;20210;-76
2023/01/03 14:52:52;;;;;;;2.33;2.20;;;;;;;8.75;100.00;101601.09;4994789;28;20272;-77
2023/01/03 14:55:19;;;;;;;3.13;2.47;;;;;;;8.71;100.00;101598.41;4995509;28;20664;-76
2023/01/03 14:57:47;;;;;;;2.90;2.70;;;;;;;8.64;100.00;101600.88;4999281;28;20837;-76
2023/01/03 15:00:21;;;;;;;2.80;2.60;;;;;;;8.58;100.00;101599.88;4994647;28;20744;-77
2023/01/03 15:02:47;;;;;;;2.83;2.47;;;;;;;8.52;100.00;101603.19;4988842;28;20204;-76
2023/01/03 15:05:24;;;;;;;3.17;2.97;;;;;;;8.44;100.00;101594.41;4994182;28;20191;-77
2023/01/03 15:07:50;;;;;;;3.33;3.13;;;;;;;8.39;100.00;101596.91;4989982;28;20188;-77
2023/01/03 15:10:33;;;;;;;3.07;2.87;;;;;;;8.32;100.00;101600.19;4983632;28;20216;-77
2023/01/03 15:12:59;;;;;;;3.60;3.30;;;;;;;8.25;100.00;101596.59;4987140;28;20188;-76
2023/01/03 15:15:33;;;;;;;3.80;3.50;;;;;;;8.17;100.00;101599.00;4988703;28;20919;-78
2023/01/03 15:18:03;;;;;;;3.33;3.03;;;;;;;8.10;100.00;101599.69;4996822;28;20262;-76
2023/01/03 15:20:41;;;;;;;2.83;2.63;;;;;;;8.03;100.00;101593.53;4993792;28;20213;-77
2023/01/03 15:23:21;;;;;;;2.50;2.30;;;;;;;7.97;100.00;101592.53;4992859;28;20225;-76
2023/01/03 15:25:47;;;;;;;2.20;2.00;;;;;;;7.87;100.00;101604.31;4997793;28;20227;-76
2023/01/03 15:28:24;;;;;;;2.57;2.20;;;;;;;7.78;100.00;101605.88;4999093;28;20189;-77
2023/01/03 15:30:50;;;;;;;2.00;1.90;;;;;;;7.71;100.00;101606.56;5001455;28;20219;-76
2023/01/03 15:33:32;;;;;;;2.13;2.00;;;;;;;7.61;100.00;101615.78;4993959;28;20185;-76
2023/01/03 15:36:14;;;;;;;2.30;2.07;;;;;;;7.51;100.00;101621.50;4996944;28;20271;-76
2023/01/03 15:38:45;;;;;;;2.37;2.17;;;;;;;7.41;100.00;101620.41;4998599;28;20200;-76
2023/01/03 15:43:18;;;;;;;2.57;2.37;;;;;;;7.35;100.00;101619.38;4995240;28;20208;-77
2023/01/03 15:44:02;;;;;;;2.43;2.23;;;;;;;7.25;100.00;101618.28;4995719;28;20882;-77
2023/01/03 15:46:28;;;;;;;2.53;2.33;;;;;;;7.16;100.00;101618.91;4996622;28;20193;-76
2023/01/03 15:48:55;;;;;;;2.60;2.40;;;;;;;7.07;100.00;101627.25;4997743;28;20200;-76
2023/01/03 15:51:20;;;;;;;2.57;2.37;;;;;;;6.97;100.00;101618.41;4993641;28;20224;-75
2023/01/03 15:53:46;;;;;;;2.90;2.60;;;;;;;6.91;100.00;101620.81;5003866;28;20184;-78
2023/01/03 15:56:11;;;;;;;3.03;2.63;;;;;;;6.83;100.00;101624.88;5029639;28;20214;-76
2023/01/03 15:58:37;;;;;;;3.47;2.50;;;;;;;6.76;100.00;101633.25;5011603;28;20676;-76
2023/01/03 16:01:03;;;;;;;2.50;2.30;;;;;;;6.66;100.00;101639.81;4996021;28;20227;-77
2023/01/03 16:03:31;;;;;;;3.03;2.73;;;;;;;6.59;100.00;101622.47;4993078;28;20184;-75
2023/01/03 16:05:57;;;;;;;3.33;3.13;;;;;;;6.52;100.00;101627.44;4993532;28;20204;-77
2023/01/03 16:08:34;;;;;;;3.17;2.97;;;;;;;6.48;100.00;101625.63;4989396;28;20184;-75
2023/01/03 16:11:04;;;;;;;3.40;3.20;;;;;;;6.44;100.00;101630.59;4991426;28;20207;-75
2023/01/03 16:13:34;;;;;;;4.60;4.17;;;;;;;6.40;100.00;101627.97;4993220;28;20199;-76
2023/01/03 16:15:59;;;;;;;4.10;3.80;;;;;;;6.36;100.00;101630.38;4994155;28;20280;-74
2023/01/03 16:18:36;;;;;;;4.00;3.70;;;;;;;6.34;100.00;101630.34;4993954;28;20219;-76
2023/01/03 16:21:03;;;;;;;4.13;3.73;;;;;;;6.30;100.00;101620.78;4986976;28;20213;-76
2023/01/03 16:23:30;;;;;;;4.07;3.77;;;;;;;6.27;100.00;101630.09;4987481;28;20213;-75